Time;durP1;ratioP1;P1;durP2;ratioP2;P2;SDS_P1;SDS_P2;PMS_P1;PMS_P2;Temp;Humidity;BMP_temperature;BMP_pressure;BME280_temperature;BME280_humidity;BME280_pressure;Samples;Min_cycle;Max_cycle;Signal;HPM_P1;HPM_P2
2021/12/12 00:00:20;;;;;;;6.099999;4.400001;;;;;;;19.63;44.15039;95927.65;;;;
2021/12/12 00:01:30;;;;;;;6.099999;4.400001;;;;;;;19.63;44.15039;95927.65;;;;
2021/12/12 00:02:49;;;;;;;6.099999;4.400001;;;;;;;19.63;44.15039;95927.65;;;;
2021/12/12 00:03:52;;;;;;;7.45;4.65;;;;;;;19.64;43.94238;95932.05;;;;
2021/12/12 00:04:58;;;;;;;7.45;4.65;;;;;;;19.64;43.94238;95932.05;;;;
2021/12/12 00:06:00;;;;;;;7.45;4.65;;;;;;;19.64;43.94238;95932.05;;;;
2021/12/12 00:07:06;;;;;;;7.45;4.65;;;;;;;19.64;43.94238;95932.05;;;;
2021/12/12 00:08:11;;;;;;;7.45;4.65;;;;;;;19.64;43.94238;95932.05;;;;
2021/12/12 00:09:13;;;;;;;7.45;4.65;;;;;;;19.64;43.94238;95932.05;;;;
2021/12/12 00:10:18;;;;;;;7.45;4.65;;;;;;;19.64;43.94238;95932.05;;;;
2021/12/12 00:11:24;;;;;;;7.45;4.65;;;;;;;19.64;43.94238;95932.05;;;;
2021/12/12 00:12:28;;;;;;;7.45;4.65;;;;;;;19.64;43.94238;95932.05;;;;
2021/12/12 00:13:34;;;;;;;7.45;4.65;;;;;;;19.64;43.94238;95932.05;;;;
2021/12/12 00:14:39;;;;;;;7.45;4.65;;;;;;;19.64;43.94238;95932.05;;;;
2021/12/12 00:15:40;;;;;;;5.999999;4.400001;;;;;;;19.62;44.09473;95946.98;;;;
2021/12/12 00:16:40;;;;;;;5.999999;4.400001;;;;;;;19.62;44.09473;95946.98;;;;
2021/12/12 00:17:43;;;;;;;5.999999;4.400001;;;;;;;19.62;44.09473;95946.98;;;;
2021/12/12 00:18:44;;;;;;;5.999999;4.400001;;;;;;;19.62;44.09473;95946.98;;;;
2021/12/12 00:19:45;;;;;;;5.999999;4.400001;;;;;;;19.62;44.09473;95946.98;;;;
2021/12/12 00:20:46;;;;;;;5.999999;4.400001;;;;;;;19.62;44.09473;95946.98;;;;
2021/12/12 00:21:48;;;;;;;5.999999;4.400001;;;;;;;19.62;44.09473;95946.98;;;;
2021/12/12 00:22:55;;;;;;;5.999999;4.400001;;;;;;;19.62;44.09473;95946.98;;;;
2021/12/12 00:23:56;;;;;;;5.999999;4.400001;;;;;;;19.62;44.09473;95946.98;;;;
2021/12/12 00:24:57;;;;;;;5.999999;4.400001;;;;;;;19.62;44.09473;95946.98;;;;
2021/12/12 00:25:58;;;;;;;6.05;4.55;;;;;;;19.64;43.88867;95959.29;;;;
2021/12/12 00:27:00;;;;;;;6.05;4.55;;;;;;;19.64;43.88867;95959.29;;;;
2021/12/12 00:28:01;;;;;;;6.05;4.55;;;;;;;19.64;43.88867;95959.29;;;;
2021/12/12 00:29:03;;;;;;;6.05;4.55;;;;;;;19.64;43.88867;95959.29;;;;
2021/12/12 00:30:07;;;;;;;6.05;4.55;;;;;;;19.64;43.88867;95959.29;;;;
2021/12/12 00:31:10;;;;;;;6.05;4.55;;;;;;;19.64;43.88867;95959.29;;;;
2021/12/12 00:32:17;;;;;;;6.05;4.55;;;;;;;19.64;43.88867;95959.29;;;;
2021/12/12 00:33:19;;;;;;;6.05;4.55;;;;;;;19.64;43.88867;95959.29;;;;
2021/12/12 00:34:21;;;;;;;6.05;4.55;;;;;;;19.64;43.88867;95959.29;;;;
2021/12/12 00:35:21;;;;;;;6.05;4.55;;;;;;;19.64;43.88867;95959.29;;;;
2021/12/12 00:36:23;;;;;;;6.05;4.55;;;;;;;19.64;43.88867;95959.29;;;;
2021/12/12 00:37:26;;;;;;;6.099999;4.25;;;;;;;19.62;43.89746;95968.36;;;;
2021/12/12 00:38:27;;;;;;;6.099999;4.25;;;;;;;19.62;43.89746;95968.36;;;;
2021/12/12 00:39:31;;;;;;;6.099999;4.25;;;;;;;19.62;43.89746;95968.36;;;;
2021/12/12 00:40:34;;;;;;;6.099999;4.25;;;;;;;19.62;43.89746;95968.36;;;;
2021/12/12 00:41:40;;;;;;;6.099999;4.25;;;;;;;19.62;43.89746;95968.36;;;;
2021/12/12 00:42:45;;;;;;;6.099999;4.25;;;;;;;19.62;43.89746;95968.36;;;;
2021/12/12 00:43:47;;;;;;;6.099999;4.25;;;;;;;19.62;43.89746;95968.36;;;;
2021/12/12 00:44:50;;;;;;;6.099999;4.25;;;;;;;19.62;43.89746;95968.36;;;;
2021/12/12 00:45:55;;;;;;;6.099999;4.25;;;;;;;19.62;43.89746;95968.36;;;;
2021/12/12 00:46:59;;;;;;;6.099999;4.25;;;;;;;19.62;43.89746;95968.36;;;;
2021/12/12 00:48:04;;;;;;;5.800001;4.3;;;;;;;19.64;43.83203;95966.3;;;;
2021/12/12 00:49:05;;;;;;;5.800001;4.3;;;;;;;19.64;43.83203;95966.3;;;;
2021/12/12 00:50:06;;;;;;;5.800001;4.3;;;;;;;19.64;43.83203;95966.3;;;;
2021/12/12 00:51:11;;;;;;;5.800001;4.3;;;;;;;19.64;43.83203;95966.3;;;;
2021/12/12 00:52:14;;;;;;;5.800001;4.3;;;;;;;19.64;43.83203;95966.3;;;;
2021/12/12 00:53:20;;;;;;;5.800001;4.3;;;;;;;19.64;43.83203;95966.3;;;;
2021/12/12 00:54:20;;;;;;;5.800001;4.3;;;;;;;19.64;43.83203;95966.3;;;;
2021/12/12 00:55:22;;;;;;;5.800001;4.3;;;;;;;19.64;43.83203;95966.3;;;;
2021/12/12 00:56:22;;;;;;;5.800001;4.3;;;;;;;19.64;43.83203;95966.3;;;;
2021/12/12 00:57:23;;;;;;;5.800001;4.3;;;;;;;19.64;43.83203;95966.3;;;;
2021/12/12 00:58:24;;;;;;;5.800001;4.3;;;;;;;19.64;43.83203;95966.3;;;;
2021/12/12 00:59:26;;;;;;;5.299999;4;;;;;;;19.62;43.85254;95957.4;;;;
2021/12/12 01:00:27;;;;;;;5.299999;4;;;;;;;19.62;43.85254;95957.4;;;;
2021/12/12 01:01:31;;;;;;;5.299999;4;;;;;;;19.62;43.85254;95957.4;;;;
2021/12/12 01:02:34;;;;;;;5.299999;4;;;;;;;19.62;43.85254;95957.4;;;;
2021/12/12 01:03:35;;;;;;;5.299999;4;;;;;;;19.62;43.85254;95957.4;;;;
2021/12/12 01:04:41;;;;;;;5.299999;4;;;;;;;19.62;43.85254;95957.4;;;;
2021/12/12 01:05:46;;;;;;;5.299999;4;;;;;;;19.62;43.85254;95957.4;;;;
2021/12/12 01:06:47;;;;;;;5.299999;4;;;;;;;19.62;43.85254;95957.4;;;;
2021/12/12 01:07:49;;;;;;;5.299999;4;;;;;;;19.62;43.85254;95957.4;;;;
2021/12/12 01:08:50;;;;;;;5.299999;4;;;;;;;19.62;43.85254;95957.4;;;;
2021/12/12 01:09:56;;;;;;;5.8;3.85;;;;;;;19.66;43.63672;95983.28;;;;
2021/12/12 01:11:03;;;;;;;5.8;3.85;;;;;;;19.66;43.63672;95983.28;;;;
2021/12/12 01:12:07;;;;;;;5.8;3.85;;;;;;;19.66;43.63672;95983.28;;;;
2021/12/12 01:13:12;;;;;;;5.8;3.85;;;;;;;19.66;43.63672;95983.28;;;;
2021/12/12 01:14:13;;;;;;;5.8;3.85;;;;;;;19.66;43.63672;95983.28;;;;
2021/12/12 01:15:18;;;;;;;5.8;3.85;;;;;;;19.66;43.63672;95983.28;;;;
2021/12/12 01:16:25;;;;;;;5.8;3.85;;;;;;;19.66;43.63672;95983.28;;;;
2021/12/12 01:17:31;;;;;;;5.8;3.85;;;;;;;19.66;43.63672;95983.28;;;;
2021/12/12 01:18:36;;;;;;;5.8;3.85;;;;;;;19.66;43.63672;95983.28;;;;
2021/12/12 01:19:42;;;;;;;5.8;3.85;;;;;;;19.66;43.63672;95983.28;;;;
2021/12/12 01:20:49;;;;;;;5.25;3.65;;;;;;;19.67;43.62598;95996.3;;;;
2021/12/12 01:21:53;;;;;;;5.25;3.65;;;;;;;19.67;43.62598;95996.3;;;;
2021/12/12 01:22:57;;;;;;;5.25;3.65;;;;;;;19.67;43.62598;95996.3;;;;
2021/12/12 01:24:02;;;;;;;5.25;3.65;;;;;;;19.67;43.62598;95996.3;;;;
2021/12/12 01:25:10;;;;;;;5.25;3.65;;;;;;;19.67;43.62598;95996.3;;;;
2021/12/12 01:26:18;;;;;;;5.25;3.65;;;;;;;19.67;43.62598;95996.3;;;;
2021/12/12 01:27:19;;;;;;;5.25;3.65;;;;;;;19.67;43.62598;95996.3;;;;
2021/12/12 01:28:21;;;;;;;5.25;3.65;;;;;;;19.67;43.62598;95996.3;;;;
2021/12/12 01:29:25;;;;;;;5.25;3.65;;;;;;;19.67;43.62598;95996.3;;;;
2021/12/12 01:30:26;;;;;;;5.25;3.65;;;;;;;19.67;43.62598;95996.3;;;;
2021/12/12 01:31:29;;;;;;;5.25;3.65;;;;;;;19.67;43.62598;95996.3;;;;
2021/12/12 01:32:33;;;;;;;4.1;3.5;;;;;;;19.69;43.50684;96002.33;;;;
2021/12/12 01:33:35;;;;;;;4.1;3.5;;;;;;;19.69;43.50684;96002.33;;;;
2021/12/12 01:34:36;;;;;;;4.1;3.5;;;;;;;19.69;43.50684;96002.33;;;;
2021/12/12 01:35:38;;;;;;;4.1;3.5;;;;;;;19.69;43.50684;96002.33;;;;
2021/12/12 01:36:47;;;;;;;4.1;3.5;;;;;;;19.69;43.50684;96002.33;;;;
2021/12/12 01:38:51;;;;;;;4.1;3.5;;;;;;;19.69;43.50684;96002.33;;;;
2021/12/12 01:39:52;;;;;;;4.1;3.5;;;;;;;19.69;43.50684;96002.33;;;;
2021/12/12 01:40:56;;;;;;;4.1;3.5;;;;;;;19.69;43.50684;96002.33;;;;
2021/12/12 01:41:58;;;;;;;4.1;3.5;;;;;;;19.69;43.50684;96002.33;;;;
2021/12/12 01:43:05;;;;;;;3.95;3.35;;;;;;;19.67;43.49316;96027.39;;;;
2021/12/12 01:44:16;;;;;;;3.95;3.35;;;;;;;19.67;43.49316;96027.39;;;;
2021/12/12 01:45:21;;;;;;;3.95;3.35;;;;;;;19.67;43.49316;96027.39;;;;
2021/12/12 01:46:25;;;;;;;3.95;3.35;;;;;;;19.67;43.49316;96027.39;;;;
2021/12/12 01:47:30;;;;;;;3.95;3.35;;;;;;;19.67;43.49316;96027.39;;;;
2021/12/12 01:48:36;;;;;;;3.95;3.35;;;;;;;19.67;43.49316;96027.39;;;;
2021/12/12 01:49:44;;;;;;;3.95;3.35;;;;;;;19.67;43.49316;96027.39;;;;
2021/12/12 01:50:50;;;;;;;3.95;3.35;;;;;;;19.67;43.49316;96027.39;;;;
2021/12/12 01:51:54;;;;;;;3.95;3.35;;;;;;;19.67;43.49316;96027.39;;;;
2021/12/12 01:52:56;;;;;;;3.95;3.35;;;;;;;19.67;43.49316;96027.39;;;;
2021/12/12 01:54:00;;;;;;;4.25;3.2;;;;;;;19.67;43.42871;96028.22;;;;
2021/12/12 01:55:04;;;;;;;4.25;3.2;;;;;;;19.67;43.42871;96028.22;;;;
2021/12/12 01:56:11;;;;;;;4.25;3.2;;;;;;;19.67;43.42871;96028.22;;;;
2021/12/12 01:57:16;;;;;;;4.25;3.2;;;;;;;19.67;43.42871;96028.22;;;;
2021/12/12 01:58:20;;;;;;;4.25;3.2;;;;;;;19.67;43.42871;96028.22;;;;
2021/12/12 01:59:24;;;;;;;4.25;3.2;;;;;;;19.67;43.42871;96028.22;;;;
2021/12/12 02:00:29;;;;;;;4.25;3.2;;;;;;;19.67;43.42871;96028.22;;;;
2021/12/12 02:01:39;;;;;;;4.25;3.2;;;;;;;19.67;43.42871;96028.22;;;;
2021/12/12 02:02:44;;;;;;;4.25;3.2;;;;;;;19.67;43.42871;96028.22;;;;
2021/12/12 02:03:45;;;;;;;4.25;3.2;;;;;;;19.67;43.42871;96028.22;;;;
2021/12/12 02:04:49;;;;;;;4.7;3.55;;;;;;;19.63;43.43457;96020.26;;;;
2021/12/12 02:05:53;;;;;;;4.7;3.55;;;;;;;19.63;43.43457;96020.26;;;;
2021/12/12 02:06:55;;;;;;;4.7;3.55;;;;;;;19.63;43.43457;96020.26;;;;
2021/12/12 02:07:58;;;;;;;4.7;3.55;;;;;;;19.63;43.43457;96020.26;;;;
2021/12/12 02:09:02;;;;;;;4.7;3.55;;;;;;;19.63;43.43457;96020.26;;;;
2021/12/12 02:10:06;;;;;;;4.7;3.55;;;;;;;19.63;43.43457;96020.26;;;;
2021/12/12 02:11:12;;;;;;;4.7;3.55;;;;;;;19.63;43.43457;96020.26;;;;
2021/12/12 02:12:16;;;;;;;4.7;3.55;;;;;;;19.63;43.43457;96020.26;;;;
2021/12/12 02:13:23;;;;;;;4.7;3.55;;;;;;;19.63;43.43457;96020.26;;;;
2021/12/12 02:14:29;;;;;;;4.7;3.55;;;;;;;19.63;43.43457;96020.26;;;;
2021/12/12 02:15:33;;;;;;;3.950001;3.15;;;;;;;19.65;43.53613;96024.1;;;;
2021/12/12 02:16:33;;;;;;;3.950001;3.15;;;;;;;19.65;43.53613;96024.1;;;;
2021/12/12 02:17:41;;;;;;;3.950001;3.15;;;;;;;19.65;43.53613;96024.1;;;;
2021/12/12 02:18:47;;;;;;;3.950001;3.15;;;;;;;19.65;43.53613;96024.1;;;;
2021/12/12 02:20:03;;;;;;;3.950001;3.15;;;;;;;19.65;43.53613;96024.1;;;;
2021/12/12 02:21:13;;;;;;;3.950001;3.15;;;;;;;19.65;43.53613;96024.1;;;;
2021/12/12 02:22:35;;;;;;;3.950001;3.15;;;;;;;19.65;43.53613;96024.1;;;;
2021/12/12 02:23:48;;;;;;;3.950001;3.15;;;;;;;19.65;43.53613;96024.1;;;;
2021/12/12 02:38:37;;;;;;;4.599999;3.05;;;;;;;19.63;43.49023;96034.92;;;;
2021/12/12 02:39:39;;;;;;;4.599999;3.05;;;;;;;19.63;43.49023;96034.92;;;;
2021/12/12 02:40:41;;;;;;;4.599999;3.05;;;;;;;19.63;43.49023;96034.92;;;;
2021/12/12 02:41:44;;;;;;;4.599999;3.05;;;;;;;19.63;43.49023;96034.92;;;;
2021/12/12 02:42:48;;;;;;;4.599999;3.05;;;;;;;19.63;43.49023;96034.92;;;;
2021/12/12 02:43:50;;;;;;;4.599999;3.05;;;;;;;19.63;43.49023;96034.92;;;;
2021/12/12 02:44:56;;;;;;;4.599999;3.05;;;;;;;19.63;43.49023;96034.92;;;;
2021/12/12 02:45:57;;;;;;;4.599999;3.05;;;;;;;19.63;43.49023;96034.92;;;;
2021/12/12 02:46:59;;;;;;;4.599999;3.05;;;;;;;19.63;43.49023;96034.92;;;;
2021/12/12 02:48:06;;;;;;;4.599999;3.05;;;;;;;19.63;43.49023;96034.92;;;;
2021/12/12 02:49:10;;;;;;;3.85;3;;;;;;;19.6;43.62988;96027.67;;;;
2021/12/12 02:50:13;;;;;;;3.85;3;;;;;;;19.6;43.62988;96027.67;;;;
2021/12/12 02:51:17;;;;;;;3.85;3;;;;;;;19.6;43.62988;96027.67;;;;
2021/12/12 02:52:19;;;;;;;3.85;3;;;;;;;19.6;43.62988;96027.67;;;;
2021/12/12 02:53:23;;;;;;;3.85;3;;;;;;;19.6;43.62988;96027.67;;;;
2021/12/12 02:54:28;;;;;;;3.85;3;;;;;;;19.6;43.62988;96027.67;;;;
2021/12/12 02:55:29;;;;;;;3.85;3;;;;;;;19.6;43.62988;96027.67;;;;
2021/12/12 02:56:33;;;;;;;3.85;3;;;;;;;19.6;43.62988;96027.67;;;;
2021/12/12 02:57:39;;;;;;;3.85;3;;;;;;;19.6;43.62988;96027.67;;;;
2021/12/12 02:58:40;;;;;;;3.85;3;;;;;;;19.6;43.62988;96027.67;;;;
2021/12/12 02:59:43;;;;;;;3.85;3.2;;;;;;;19.61;43.55469;96045.33;;;;
2021/12/12 03:00:45;;;;;;;3.85;3.2;;;;;;;19.61;43.55469;96045.33;;;;
2021/12/12 03:01:58;;;;;;;3.85;3.2;;;;;;;19.61;43.55469;96045.33;;;;
2021/12/12 03:03:03;;;;;;;3.85;3.2;;;;;;;19.61;43.55469;96045.33;;;;
2021/12/12 03:04:04;;;;;;;3.85;3.2;;;;;;;19.61;43.55469;96045.33;;;;
2021/12/12 03:05:08;;;;;;;3.85;3.2;;;;;;;19.61;43.55469;96045.33;;;;
2021/12/12 03:06:08;;;;;;;3.85;3.2;;;;;;;19.61;43.55469;96045.33;;;;
2021/12/12 03:07:14;;;;;;;3.85;3.2;;;;;;;19.61;43.55469;96045.33;;;;
2021/12/12 03:08:15;;;;;;;3.85;3.2;;;;;;;19.61;43.55469;96045.33;;;;
2021/12/12 03:09:16;;;;;;;3.85;3.2;;;;;;;19.61;43.55469;96045.33;;;;
2021/12/12 03:10:23;;;;;;;3.85;3.2;;;;;;;19.61;43.55469;96045.33;;;;
2021/12/12 03:11:28;;;;;;;3.1;2.75;;;;;;;19.59;43.57422;96049.72;;;;
2021/12/12 03:12:31;;;;;;;3.1;2.75;;;;;;;19.59;43.57422;96049.72;;;;
2021/12/12 03:13:35;;;;;;;3.1;2.75;;;;;;;19.59;43.57422;96049.72;;;;
2021/12/12 03:14:37;;;;;;;3.1;2.75;;;;;;;19.59;43.57422;96049.72;;;;
2021/12/12 03:15:39;;;;;;;3.1;2.75;;;;;;;19.59;43.57422;96049.72;;;;
2021/12/12 03:16:42;;;;;;;3.1;2.75;;;;;;;19.59;43.57422;96049.72;;;;
2021/12/12 03:17:43;;;;;;;3.1;2.75;;;;;;;19.59;43.57422;96049.72;;;;
2021/12/12 03:18:47;;;;;;;3.1;2.75;;;;;;;19.59;43.57422;96049.72;;;;
2021/12/12 03:19:48;;;;;;;3.1;2.75;;;;;;;19.59;43.57422;96049.72;;;;
2021/12/12 03:20:53;;;;;;;3.1;2.75;;;;;;;19.59;43.57422;96049.72;;;;
2021/12/12 03:21:57;;;;;;;3.8;3;;;;;;;19.61;43.41113;96043;;;;
2021/12/12 03:22:58;;;;;;;3.8;3;;;;;;;19.61;43.41113;96043;;;;
2021/12/12 03:24:02;;;;;;;3.8;3;;;;;;;19.61;43.41113;96043;;;;
2021/12/12 03:25:08;;;;;;;3.8;3;;;;;;;19.61;43.41113;96043;;;;
2021/12/12 03:26:09;;;;;;;3.8;3;;;;;;;19.61;43.41113;96043;;;;
2021/12/12 03:27:11;;;;;;;3.8;3;;;;;;;19.61;43.41113;96043;;;;
2021/12/12 03:28:13;;;;;;;3.8;3;;;;;;;19.61;43.41113;96043;;;;
2021/12/12 03:29:17;;;;;;;3.8;3;;;;;;;19.61;43.41113;96043;;;;
2021/12/12 03:30:18;;;;;;;3.8;3;;;;;;;19.61;43.41113;96043;;;;
2021/12/12 03:31:20;;;;;;;3.8;3;;;;;;;19.61;43.41113;96043;;;;
2021/12/12 03:32:27;;;;;;;3.05;2.750001;;;;;;;19.58;43.51855;96046.3;;;;
2021/12/12 03:33:27;;;;;;;3.05;2.750001;;;;;;;19.58;43.51855;96046.3;;;;
2021/12/12 03:34:30;;;;;;;3.05;2.750001;;;;;;;19.58;43.51855;96046.3;;;;
2021/12/12 03:35:35;;;;;;;3.05;2.750001;;;;;;;19.58;43.51855;96046.3;;;;
2021/12/12 03:36:36;;;;;;;3.05;2.750001;;;;;;;19.58;43.51855;96046.3;;;;
2021/12/12 03:37:37;;;;;;;3.05;2.750001;;;;;;;19.58;43.51855;96046.3;;;;
2021/12/12 03:38:40;;;;;;;3.05;2.750001;;;;;;;19.58;43.51855;96046.3;;;;
2021/12/12 03:39:44;;;;;;;3.05;2.750001;;;;;;;19.58;43.51855;96046.3;;;;
2021/12/12 03:40:48;;;;;;;3.05;2.750001;;;;;;;19.58;43.51855;96046.3;;;;
2021/12/12 03:41:48;;;;;;;3.05;2.750001;;;;;;;19.58;43.51855;96046.3;;;;
2021/12/12 03:42:50;;;;;;;3.05;2.750001;;;;;;;19.58;43.51855;96046.3;;;;
2021/12/12 03:43:54;;;;;;;3.75;3;;;;;;;19.61;43.24512;96046.31;;;;
2021/12/12 03:44:59;;;;;;;3.75;3;;;;;;;19.61;43.24512;96046.31;;;;
2021/12/12 03:46:01;;;;;;;3.75;3;;;;;;;19.61;43.24512;96046.31;;;;
2021/12/12 03:47:02;;;;;;;3.75;3;;;;;;;19.61;43.24512;96046.31;;;;
2021/12/12 03:48:10;;;;;;;3.75;3;;;;;;;19.61;43.24512;96046.31;;;;
2021/12/12 03:49:14;;;;;;;3.75;3;;;;;;;19.61;43.24512;96046.31;;;;
2021/12/12 03:50:15;;;;;;;3.75;3;;;;;;;19.61;43.24512;96046.31;;;;
2021/12/12 03:51:21;;;;;;;3.75;3;;;;;;;19.61;43.24512;96046.31;;;;
2021/12/12 03:52:24;;;;;;;3.75;3;;;;;;;19.61;43.24512;96046.31;;;;
2021/12/12 03:53:27;;;;;;;3.75;3;;;;;;;19.61;43.24512;96046.31;;;;
2021/12/12 03:54:30;;;;;;;3.55;2.65;;;;;;;19.58;43.5293;96042.61;;;;
2021/12/12 03:55:31;;;;;;;3.55;2.65;;;;;;;19.58;43.5293;96042.61;;;;
2021/12/12 03:56:33;;;;;;;3.55;2.65;;;;;;;19.58;43.5293;96042.61;;;;
2021/12/12 03:57:34;;;;;;;3.55;2.65;;;;;;;19.58;43.5293;96042.61;;;;
2021/12/12 03:58:35;;;;;;;3.55;2.65;;;;;;;19.58;43.5293;96042.61;;;;
2021/12/12 03:59:36;;;;;;;3.55;2.65;;;;;;;19.58;43.5293;96042.61;;;;
2021/12/12 04:00:37;;;;;;;3.55;2.65;;;;;;;19.58;43.5293;96042.61;;;;
2021/12/12 04:01:43;;;;;;;3.55;2.65;;;;;;;19.58;43.5293;96042.61;;;;
2021/12/12 04:02:47;;;;;;;3.55;2.65;;;;;;;19.58;43.5293;96042.61;;;;
2021/12/12 04:03:48;;;;;;;3.55;2.65;;;;;;;19.58;43.5293;96042.61;;;;
2021/12/12 04:04:54;;;;;;;3.55;2.65;;;;;;;19.58;43.5293;96042.61;;;;
2021/12/12 04:05:54;;;;;;;3.200001;2.65;;;;;;;19.61;43.25684;96047.53;;;;
2021/12/12 04:06:58;;;;;;;3.200001;2.65;;;;;;;19.61;43.25684;96047.53;;;;
2021/12/12 04:08:04;;;;;;;3.200001;2.65;;;;;;;19.61;43.25684;96047.53;;;;
2021/12/12 04:09:06;;;;;;;3.200001;2.65;;;;;;;19.61;43.25684;96047.53;;;;
2021/12/12 04:10:09;;;;;;;3.200001;2.65;;;;;;;19.61;43.25684;96047.53;;;;
2021/12/12 04:11:12;;;;;;;3.200001;2.65;;;;;;;19.61;43.25684;96047.53;;;;
2021/12/12 04:12:18;;;;;;;3.200001;2.65;;;;;;;19.61;43.25684;96047.53;;;;
2021/12/12 04:13:20;;;;;;;3.200001;2.65;;;;;;;19.61;43.25684;96047.53;;;;
2021/12/12 04:14:21;;;;;;;3.200001;2.65;;;;;;;19.61;43.25684;96047.53;;;;
2021/12/12 04:15:23;;;;;;;3.200001;2.65;;;;;;;19.61;43.25684;96047.53;;;;
2021/12/12 04:16:24;;;;;;;2.95;2.55;;;;;;;19.58;43.36426;96047.67;;;;
2021/12/12 04:17:27;;;;;;;2.95;2.55;;;;;;;19.58;43.36426;96047.67;;;;
2021/12/12 04:18:30;;;;;;;2.95;2.55;;;;;;;19.58;43.36426;96047.67;;;;
2021/12/12 04:19:30;;;;;;;2.95;2.55;;;;;;;19.58;43.36426;96047.67;;;;
2021/12/12 04:20:31;;;;;;;2.95;2.55;;;;;;;19.58;43.36426;96047.67;;;;
2021/12/12 04:21:35;;;;;;;2.95;2.55;;;;;;;19.58;43.36426;96047.67;;;;
2021/12/12 04:22:37;;;;;;;2.95;2.55;;;;;;;19.58;43.36426;96047.67;;;;
2021/12/12 04:23:38;;;;;;;2.95;2.55;;;;;;;19.58;43.36426;96047.67;;;;
2021/12/12 04:24:39;;;;;;;2.95;2.55;;;;;;;19.58;43.36426;96047.67;;;;
2021/12/12 04:25:43;;;;;;;2.95;2.55;;;;;;;19.58;43.36426;96047.67;;;;
2021/12/12 04:26:44;;;;;;;2.95;2.55;;;;;;;19.58;43.36426;96047.67;;;;
2021/12/12 04:27:44;;;;;;;2.65;2.35;;;;;;;19.6;43.25586;96062.34;;;;
2021/12/12 04:28:45;;;;;;;2.65;2.35;;;;;;;19.6;43.25586;96062.34;;;;
2021/12/12 04:30:00;;;;;;;2.65;2.35;;;;;;;19.6;43.25586;96062.34;;;;
2021/12/12 04:31:03;;;;;;;2.65;2.35;;;;;;;19.6;43.25586;96062.34;;;;
2021/12/12 04:32:04;;;;;;;2.65;2.35;;;;;;;19.6;43.25586;96062.34;;;;
2021/12/12 04:33:07;;;;;;;2.65;2.35;;;;;;;19.6;43.25586;96062.34;;;;
2021/12/12 04:34:08;;;;;;;2.65;2.35;;;;;;;19.6;43.25586;96062.34;;;;
2021/12/12 04:35:10;;;;;;;2.65;2.35;;;;;;;19.6;43.25586;96062.34;;;;
2021/12/12 04:36:15;;;;;;;2.65;2.35;;;;;;;19.6;43.25586;96062.34;;;;
2021/12/12 04:37:15;;;;;;;2.65;2.35;;;;;;;19.6;43.25586;96062.34;;;;
2021/12/12 04:38:18;;;;;;;2.65;2.45;;;;;;;19.58;43.28711;96079.6;;;;
2021/12/12 04:39:18;;;;;;;2.65;2.45;;;;;;;19.58;43.28711;96079.6;;;;
2021/12/12 04:40:21;;;;;;;2.65;2.45;;;;;;;19.58;43.28711;96079.6;;;;
2021/12/12 04:41:25;;;;;;;2.65;2.45;;;;;;;19.58;43.28711;96079.6;;;;
2021/12/12 04:42:25;;;;;;;2.65;2.45;;;;;;;19.58;43.28711;96079.6;;;;
2021/12/12 04:43:28;;;;;;;2.65;2.45;;;;;;;19.58;43.28711;96079.6;;;;
2021/12/12 04:44:29;;;;;;;2.65;2.45;;;;;;;19.58;43.28711;96079.6;;;;
2021/12/12 04:45:35;;;;;;;2.65;2.45;;;;;;;19.58;43.28711;96079.6;;;;
2021/12/12 04:49:55;;;;;;;2.65;2.45;;;;;;;19.58;43.28711;96079.6;;;;
2021/12/12 04:51:03;;;;;;;2.900001;2.4;;;;;;;19.64;43.21484;96101.93;;;;
2021/12/12 04:52:09;;;;;;;2.900001;2.4;;;;;;;19.64;43.21484;96101.93;;;;
2021/12/12 04:53:12;;;;;;;2.900001;2.4;;;;;;;19.64;43.21484;96101.93;;;;
2021/12/12 04:54:19;;;;;;;2.900001;2.4;;;;;;;19.64;43.21484;96101.93;;;;
2021/12/12 04:55:25;;;;;;;2.900001;2.4;;;;;;;19.64;43.21484;96101.93;;;;
2021/12/12 04:56:30;;;;;;;2.900001;2.4;;;;;;;19.64;43.21484;96101.93;;;;
2021/12/12 04:57:38;;;;;;;2.900001;2.4;;;;;;;19.64;43.21484;96101.93;;;;
2021/12/12 04:58:45;;;;;;;2.900001;2.4;;;;;;;19.64;43.21484;96101.93;;;;
2021/12/12 04:59:52;;;;;;;2.900001;2.4;;;;;;;19.64;43.21484;96101.93;;;;
2021/12/12 05:00:59;;;;;;;2.6;2.35;;;;;;;19.63;43.18164;96105.75;;;;
2021/12/12 05:02:06;;;;;;;2.6;2.35;;;;;;;19.63;43.18164;96105.75;;;;
2021/12/12 05:03:13;;;;;;;2.6;2.35;;;;;;;19.63;43.18164;96105.75;;;;
2021/12/12 05:04:21;;;;;;;2.6;2.35;;;;;;;19.63;43.18164;96105.75;;;;
2021/12/12 05:05:26;;;;;;;2.6;2.35;;;;;;;19.63;43.18164;96105.75;;;;
2021/12/12 05:06:32;;;;;;;2.6;2.35;;;;;;;19.63;43.18164;96105.75;;;;
2021/12/12 05:07:37;;;;;;;2.6;2.35;;;;;;;19.63;43.18164;96105.75;;;;
2021/12/12 05:08:43;;;;;;;2.6;2.35;;;;;;;19.63;43.18164;96105.75;;;;
2021/12/12 05:09:50;;;;;;;2.6;2.35;;;;;;;19.63;43.18164;96105.75;;;;
2021/12/12 05:10:56;;;;;;;2.6;2.35;;;;;;;19.63;43.18164;96105.75;;;;
2021/12/12 05:12:00;;;;;;;2.55;2.35;;;;;;;19.67;42.98633;96119.19;;;;
2021/12/12 05:13:07;;;;;;;2.55;2.35;;;;;;;19.67;42.98633;96119.19;;;;
2021/12/12 05:14:21;;;;;;;2.55;2.35;;;;;;;19.67;42.98633;96119.19;;;;
2021/12/12 05:15:25;;;;;;;2.55;2.35;;;;;;;19.67;42.98633;96119.19;;;;
2021/12/12 05:16:30;;;;;;;2.55;2.35;;;;;;;19.67;42.98633;96119.19;;;;
2021/12/12 05:17:35;;;;;;;2.55;2.35;;;;;;;19.67;42.98633;96119.19;;;;
2021/12/12 05:18:46;;;;;;;2.55;2.35;;;;;;;19.67;42.98633;96119.19;;;;
2021/12/12 05:19:50;;;;;;;2.55;2.35;;;;;;;19.67;42.98633;96119.19;;;;
2021/12/12 05:20:55;;;;;;;2.55;2.35;;;;;;;19.67;42.98633;96119.19;;;;
2021/12/12 05:22:01;;;;;;;2.55;2.35;;;;;;;19.67;42.98633;96119.19;;;;
2021/12/12 05:23:14;;;;;;;2.4;2.2;;;;;;;19.63;42.9502;96133.56;;;;
2021/12/12 05:24:19;;;;;;;2.4;2.2;;;;;;;19.63;42.9502;96133.56;;;;
2021/12/12 05:25:22;;;;;;;2.4;2.2;;;;;;;19.63;42.9502;96133.56;;;;
2021/12/12 05:26:28;;;;;;;2.4;2.2;;;;;;;19.63;42.9502;96133.56;;;;
2021/12/12 05:27:33;;;;;;;2.4;2.2;;;;;;;19.63;42.9502;96133.56;;;;
2021/12/12 05:28:35;;;;;;;2.4;2.2;;;;;;;19.63;42.9502;96133.56;;;;
2021/12/12 05:29:41;;;;;;;2.4;2.2;;;;;;;19.63;42.9502;96133.56;;;;
2021/12/12 05:30:47;;;;;;;2.4;2.2;;;;;;;19.63;42.9502;96133.56;;;;
2021/12/12 05:31:49;;;;;;;2.4;2.2;;;;;;;19.63;42.9502;96133.56;;;;
2021/12/12 05:32:52;;;;;;;2.4;2.2;;;;;;;19.63;42.9502;96133.56;;;;
2021/12/12 05:33:53;;;;;;;2.299999;2.1;;;;;;;19.64;42.96191;96137.39;;;;
2021/12/12 05:34:55;;;;;;;2.299999;2.1;;;;;;;19.64;42.96191;96137.39;;;;
2021/12/12 05:35:57;;;;;;;2.299999;2.1;;;;;;;19.64;42.96191;96137.39;;;;
2021/12/12 05:37:00;;;;;;;2.299999;2.1;;;;;;;19.64;42.96191;96137.39;;;;
2021/12/12 05:38:03;;;;;;;2.299999;2.1;;;;;;;19.64;42.96191;96137.39;;;;
2021/12/12 05:39:05;;;;;;;2.299999;2.1;;;;;;;19.64;42.96191;96137.39;;;;
2021/12/12 05:40:06;;;;;;;2.299999;2.1;;;;;;;19.64;42.96191;96137.39;;;;
2021/12/12 05:41:11;;;;;;;2.299999;2.1;;;;;;;19.64;42.96191;96137.39;;;;
2021/12/12 05:42:14;;;;;;;2.299999;2.1;;;;;;;19.64;42.96191;96137.39;;;;
2021/12/12 05:43:17;;;;;;;2.299999;2.1;;;;;;;19.64;42.96191;96137.39;;;;
2021/12/12 05:44:19;;;;;;;2.45;2.25;;;;;;;19.6;43.07813;96140.97;;;;
2021/12/12 05:45:20;;;;;;;2.45;2.25;;;;;;;19.6;43.07813;96140.97;;;;
2021/12/12 05:46:23;;;;;;;2.45;2.25;;;;;;;19.6;43.07813;96140.97;;;;
2021/12/12 05:47:24;;;;;;;2.45;2.25;;;;;;;19.6;43.07813;96140.97;;;;
2021/12/12 05:48:26;;;;;;;2.45;2.25;;;;;;;19.6;43.07813;96140.97;;;;
2021/12/12 05:49:28;;;;;;;2.45;2.25;;;;;;;19.6;43.07813;96140.97;;;;
2021/12/12 05:50:29;;;;;;;2.45;2.25;;;;;;;19.6;43.07813;96140.97;;;;
2021/12/12 05:51:29;;;;;;;2.45;2.25;;;;;;;19.6;43.07813;96140.97;;;;
2021/12/12 05:52:30;;;;;;;2.45;2.25;;;;;;;19.6;43.07813;96140.97;;;;
2021/12/12 05:53:31;;;;;;;2.45;2.25;;;;;;;19.6;43.07813;96140.97;;;;
2021/12/12 05:54:32;;;;;;;2.45;2.25;;;;;;;19.6;43.07813;96140.97;;;;
2021/12/12 05:55:33;;;;;;;2.65;2.35;;;;;;;19.62;43.00391;96134.13;;;;
2021/12/12 05:56:36;;;;;;;2.65;2.35;;;;;;;19.62;43.00391;96134.13;;;;
2021/12/12 05:57:38;;;;;;;2.65;2.35;;;;;;;19.62;43.00391;96134.13;;;;
2021/12/12 05:58:40;;;;;;;2.65;2.35;;;;;;;19.62;43.00391;96134.13;;;;
2021/12/12 05:59:41;;;;;;;2.65;2.35;;;;;;;19.62;43.00391;96134.13;;;;
2021/12/12 06:00:42;;;;;;;2.65;2.35;;;;;;;19.62;43.00391;96134.13;;;;
2021/12/12 06:01:46;;;;;;;2.65;2.35;;;;;;;19.62;43.00391;96134.13;;;;
2021/12/12 06:02:48;;;;;;;2.65;2.35;;;;;;;19.62;43.00391;96134.13;;;;
2021/12/12 06:03:49;;;;;;;2.65;2.35;;;;;;;19.62;43.00391;96134.13;;;;
2021/12/12 06:04:51;;;;;;;2.65;2.35;;;;;;;19.62;43.00391;96134.13;;;;
2021/12/12 06:05:55;;;;;;;2.65;2.35;;;;;;;19.62;43.00391;96134.13;;;;
2021/12/12 06:06:58;;;;;;;2.35;2.15;;;;;;;19.6;42.9248;96155.08;;;;
2021/12/12 06:08:00;;;;;;;2.35;2.15;;;;;;;19.6;42.9248;96155.08;;;;
2021/12/12 06:09:01;;;;;;;2.35;2.15;;;;;;;19.6;42.9248;96155.08;;;;
2021/12/12 06:10:06;;;;;;;2.35;2.15;;;;;;;19.6;42.9248;96155.08;;;;
2021/12/12 06:11:12;;;;;;;2.35;2.15;;;;;;;19.6;42.9248;96155.08;;;;
2021/12/12 06:12:16;;;;;;;2.35;2.15;;;;;;;19.6;42.9248;96155.08;;;;
2021/12/12 06:13:18;;;;;;;2.35;2.15;;;;;;;19.6;42.9248;96155.08;;;;
2021/12/12 06:14:20;;;;;;;2.35;2.15;;;;;;;19.6;42.9248;96155.08;;;;
2021/12/12 06:15:22;;;;;;;2.35;2.15;;;;;;;19.6;42.9248;96155.08;;;;
2021/12/12 06:16:25;;;;;;;2.35;2.15;;;;;;;19.6;42.9248;96155.08;;;;
2021/12/12 06:17:28;;;;;;;2.2;2.05;;;;;;;19.61;42.9248;96160.02;;;;